sensor_id;sensor_type;location;lat;lon;timestamp;temperature;humidity
19892;DHT22;10108;50.142;8.724;2023-04-07T00:01:33;8.20;99.90
19892;DHT22;10108;50.142;8.724;2023-04-07T00:03:59;8.20;99.90
19892;DHT22;10108;50.142;8.724;2023-04-07T00:06:26;8.20;99.90
19892;DHT22;10108;50.142;8.724;2023-04-07T00:08:52;8.20;99.90
19892;DHT22;10108;50.142;8.724;2023-04-07T00:11:18;8.10;99.90
19892;DHT22;10108;50.142;8.724;2023-04-07T00:13:44;8.10;99.90
19892;DHT22;10108;50.142;8.724;2023-04-07T00:16:10;8.10;99.90
19892;DHT22;10108;50.142;8.724;2023-04-07T00:18:36;8.10;99.90
19892;DHT22;10108;50.142;8.724;2023-04-07T00:21:03;8.00;99.90
19892;DHT22;10108;50.142;8.724;2023-04-07T00:23:29;8.00;99.90
19892;DHT22;10108;50.142;8.724;2023-04-07T00:25:55;8.00;99.90
19892;DHT22;10108;50.142;8.724;2023-04-07T00:28:21;8.00;99.90
19892;DHT22;10108;50.142;8.724;2023-04-07T00:30:47;8.00;99.90
19892;DHT22;10108;50.142;8.724;2023-04-07T00:33:13;8.00;99.90
19892;DHT22;10108;50.142;8.724;2023-04-07T00:35:40;8.00;99.90
19892;DHT22;10108;50.142;8.724;2023-04-07T00:38:06;8.00;99.90
19892;DHT22;10108;50.142;8.724;2023-04-07T00:40:32;8.00;99.90
19892;DHT22;10108;50.142;8.724;2023-04-07T00:42:58;8.00;99.90
19892;DHT22;10108;50.142;8.724;2023-04-07T00:45:25;8.00;99.90
19892;DHT22;10108;50.142;8.724;2023-04-07T00:47:51;8.00;99.90
19892;DHT22;10108;50.142;8.724;2023-04-07T00:50:18;8.00;99.90
19892;DHT22;10108;50.142;8.724;2023-04-07T00:52:44;8.00;99.90
19892;DHT22;10108;50.142;8.724;2023-04-07T00:55:11;8.00;99.90
19892;DHT22;10108;50.142;8.724;2023-04-07T00:57:37;8.00;99.90
19892;DHT22;10108;50.142;8.724;2023-04-07T01:00:04;8.00;99.90
19892;DHT22;10108;50.142;8.724;2023-04-07T01:02:38;8.00;99.90
19892;DHT22;10108;50.142;8.724;2023-04-07T01:07:59;8.00;99.90
19892;DHT22;10108;50.142;8.724;2023-04-07T01:10:58;7.90;99.90
19892;DHT22;10108;50.142;8.724;2023-04-07T01:13:36;7.90;99.90
19892;DHT22;10108;50.142;8.724;2023-04-07T01:16:19;7.90;99.90
19892;DHT22;10108;50.142;8.724;2023-04-07T01:18:53;7.90;99.90
19892;DHT22;10108;50.142;8.724;2023-04-07T01:21:22;7.90;99.90
19892;DHT22;10108;50.142;8.724;2023-04-07T01:26:39;7.90;99.90
19892;DHT22;10108;50.142;8.724;2023-04-07T01:29:28;7.90;99.90
19892;DHT22;10108;50.142;8.724;2023-04-07T01:31:58;7.90;99.90
19892;DHT22;10108;50.142;8.724;2023-04-07T01:34:26;7.90;99.90
19892;DHT22;10108;50.142;8.724;2023-04-07T01:36:55;7.90;99.90
19892;DHT22;10108;50.142;8.724;2023-04-07T01:39:22;7.80;99.90
19892;DHT22;10108;50.142;8.724;2023-04-07T01:41:50;7.90;99.90
19892;DHT22;10108;50.142;8.724;2023-04-07T01:44:19;7.90;99.90
19892;DHT22;10108;50.142;8.724;2023-04-07T01:46:45;7.90;99.90
19892;DHT22;10108;50.142;8.724;2023-04-07T01:49:12;7.90;99.90
19892;DHT22;10108;50.142;8.724;2023-04-07T01:51:40;7.90;99.90
19892;DHT22;10108;50.142;8.724;2023-04-07T01:54:07;7.80;99.90
19892;DHT22;10108;50.142;8.724;2023-04-07T01:56:34;7.90;99.90
19892;DHT22;10108;50.142;8.724;2023-04-07T01:59:04;7.90;99.90
19892;DHT22;10108;50.142;8.724;2023-04-07T02:01:30;7.90;99.90
19892;DHT22;10108;50.142;8.724;2023-04-07T02:06:52;7.90;99.90
19892;DHT22;10108;50.142;8.724;2023-04-07T02:09:29;7.80;99.90
19892;DHT22;10108;50.142;8.724;2023-04-07T02:11:59;7.80;99.90
19892;DHT22;10108;50.142;8.724;2023-04-07T02:14:29;7.80;99.90
19892;DHT22;10108;50.142;8.724;2023-04-07T02:17:03;7.80;99.90
19892;DHT22;10108;50.142;8.724;2023-04-07T02:19:32;7.70;99.90
19892;DHT22;10108;50.142;8.724;2023-04-07T02:21:59;7.70;99.90
19892;DHT22;10108;50.142;8.724;2023-04-07T02:24:26;7.70;99.90
19892;DHT22;10108;50.142;8.724;2023-04-07T02:26:52;7.60;99.90
19892;DHT22;10108;50.142;8.724;2023-04-07T02:29:18;7.60;99.90
19892;DHT22;10108;50.142;8.724;2023-04-07T02:31:45;7.60;99.90
19892;DHT22;10108;50.142;8.724;2023-04-07T02:34:11;7.60;99.90
19892;DHT22;10108;50.142;8.724;2023-04-07T02:36:38;7.50;99.90
19892;DHT22;10108;50.142;8.724;2023-04-07T02:39:06;7.50;99.90
19892;DHT22;10108;50.142;8.724;2023-04-07T02:41:32;7.50;99.90
19892;DHT22;10108;50.142;8.724;2023-04-07T02:43:59;7.50;99.90
19892;DHT22;10108;50.142;8.724;2023-04-07T02:46:25;7.50;99.90
19892;DHT22;10108;50.142;8.724;2023-04-07T02:48:51;7.50;99.90
19892;DHT22;10108;50.142;8.724;2023-04-07T02:51:17;7.50;99.90
19892;DHT22;10108;50.142;8.724;2023-04-07T02:53:44;7.50;99.90
19892;DHT22;10108;50.142;8.724;2023-04-07T02:56:10;7.50;99.90
19892;DHT22;10108;50.142;8.724;2023-04-07T02:58:36;7.50;99.90
19892;DHT22;10108;50.142;8.724;2023-04-07T03:01:03;7.50;99.90
19892;DHT22;10108;50.142;8.724;2023-04-07T03:03:32;7.50;99.90
19892;DHT22;10108;50.142;8.724;2023-04-07T03:06:05;7.50;99.90
19892;DHT22;10108;50.142;8.724;2023-04-07T03:08:34;7.50;99.90
19892;DHT22;10108;50.142;8.724;2023-04-07T03:11:00;7.50;99.90
19892;DHT22;10108;50.142;8.724;2023-04-07T03:13:28;7.50;99.90
19892;DHT22;10108;50.142;8.724;2023-04-07T03:15:56;7.50;99.90
19892;DHT22;10108;50.142;8.724;2023-04-07T03:18:24;7.60;99.90
19892;DHT22;10108;50.142;8.724;2023-04-07T03:20:55;7.60;99.90
19892;DHT22;10108;50.142;8.724;2023-04-07T03:23:21;7.60;99.90
19892;DHT22;10108;50.142;8.724;2023-04-07T03:25:49;7.60;99.90
19892;DHT22;10108;50.142;8.724;2023-04-07T03:28:15;7.60;99.90
19892;DHT22;10108;50.142;8.724;2023-04-07T03:30:42;7.60;99.90
19892;DHT22;10108;50.142;8.724;2023-04-07T03:33:08;7.60;99.90
19892;DHT22;10108;50.142;8.724;2023-04-07T03:35:35;7.60;99.90
19892;DHT22;10108;50.142;8.724;2023-04-07T03:38:01;7.70;99.90
19892;DHT22;10108;50.142;8.724;2023-04-07T03:40:27;7.70;99.90
19892;DHT22;10108;50.142;8.724;2023-04-07T03:42:54;7.70;99.90
19892;DHT22;10108;50.142;8.724;2023-04-07T03:45:21;7.70;99.90
19892;DHT22;10108;50.142;8.724;2023-04-07T03:47:50;7.70;99.90
19892;DHT22;10108;50.142;8.724;2023-04-07T03:50:17;7.60;99.90
19892;DHT22;10108;50.142;8.724;2023-04-07T03:53:06;7.60;99.90
19892;DHT22;10108;50.142;8.724;2023-04-07T03:55:33;7.60;99.90
19892;DHT22;10108;50.142;8.724;2023-04-07T03:58:08;7.60;99.90
19892;DHT22;10108;50.142;8.724;2023-04-07T04:00:36;7.60;99.90
19892;DHT22;10108;50.142;8.724;2023-04-07T04:03:07;7.60;99.90
19892;DHT22;10108;50.142;8.724;2023-04-07T04:05:36;7.60;99.90
19892;DHT22;10108;50.142;8.724;2023-04-07T04:08:02;7.60;99.90
19892;DHT22;10108;50.142;8.724;2023-04-07T04:10:29;7.60;99.90
19892;DHT22;10108;50.142;8.724;2023-04-07T04:12:57;7.70;99.90
19892;DHT22;10108;50.142;8.724;2023-04-07T04:15:25;7.70;99.90
19892;DHT22;10108;50.142;8.724;2023-04-07T04:17:52;7.70;99.90
19892;DHT22;10108;50.142;8.724;2023-04-07T04:20:19;7.70;99.90
19892;DHT22;10108;50.142;8.724;2023-04-07T04:22:49;7.70;99.90
19892;DHT22;10108;50.142;8.724;2023-04-07T04:25:16;7.70;99.90
19892;DHT22;10108;50.142;8.724;2023-04-07T04:27:47;7.70;99.90
19892;DHT22;10108;50.142;8.724;2023-04-07T04:30:19;7.70;99.90
19892;DHT22;10108;50.142;8.724;2023-04-07T04:32:59;7.70;99.90
19892;DHT22;10108;50.142;8.724;2023-04-07T04:35:33;7.70;99.90
19892;DHT22;10108;50.142;8.724;2023-04-07T04:38:09;7.80;99.90
19892;DHT22;10108;50.142;8.724;2023-04-07T04:40:39;7.70;99.90
19892;DHT22;10108;50.142;8.724;2023-04-07T04:43:06;7.70;99.90
19892;DHT22;10108;50.142;8.724;2023-04-07T04:45:36;7.60;99.90
19892;DHT22;10108;50.142;8.724;2023-04-07T04:48:03;7.60;99.90
19892;DHT22;10108;50.142;8.724;2023-04-07T04:50:29;7.60;99.90
19892;DHT22;10108;50.142;8.724;2023-04-07T04:52:56;7.60;99.90
19892;DHT22;10108;50.142;8.724;2023-04-07T04:55:23;7.60;99.90
19892;DHT22;10108;50.142;8.724;2023-04-07T04:57:51;7.60;99.90
19892;DHT22;10108;50.142;8.724;2023-04-07T05:00:23;7.60;99.90
19892;DHT22;10108;50.142;8.724;2023-04-07T05:02:55;7.60;99.90
19892;DHT22;10108;50.142;8.724;2023-04-07T05:05:22;7.60;99.90
19892;DHT22;10108;50.142;8.724;2023-04-07T05:07:50;7.60;99.90
19892;DHT22;10108;50.142;8.724;2023-04-07T05:10:16;7.70;99.90
19892;DHT22;10108;50.142;8.724;2023-04-07T05:12:48;7.60;99.90
19892;DHT22;10108;50.142;8.724;2023-04-07T05:15:14;7.60;99.90
19892;DHT22;10108;50.142;8.724;2023-04-07T05:17:41;7.60;99.90
19892;DHT22;10108;50.142;8.724;2023-04-07T05:20:10;7.70;99.90
19892;DHT22;10108;50.142;8.724;2023-04-07T05:22:39;7.70;99.90
19892;DHT22;10108;50.142;8.724;2023-04-07T05:25:08;7.70;99.90
19892;DHT22;10108;50.142;8.724;2023-04-07T05:27:34;7.70;99.90
19892;DHT22;10108;50.142;8.724;2023-04-07T05:30:07;7.70;99.90
19892;DHT22;10108;50.142;8.724;2023-04-07T05:32:36;7.80;99.90
19892;DHT22;10108;50.142;8.724;2023-04-07T05:35:09;7.80;99.90
19892;DHT22;10108;50.142;8.724;2023-04-07T05:37:39;7.70;99.90
19892;DHT22;10108;50.142;8.724;2023-04-07T05:40:06;7.70;99.90
19892;DHT22;10108;50.142;8.724;2023-04-07T05:42:33;7.70;99.90
19892;DHT22;10108;50.142;8.724;2023-04-07T05:44:59;7.70;99.90
19892;DHT22;10108;50.142;8.724;2023-04-07T05:47:27;7.70;99.90
19892;DHT22;10108;50.142;8.724;2023-04-07T05:49:54;7.70;99.90
19892;DHT22;10108;50.142;8.724;2023-04-07T05:52:20;7.70;99.90
19892;DHT22;10108;50.142;8.724;2023-04-07T05:54:53;7.70;99.90
19892;DHT22;10108;50.142;8.724;2023-04-07T05:57:20;7.70;99.90
19892;DHT22;10108;50.142;8.724;2023-04-07T05:59:48;7.70;99.90
19892;DHT22;10108;50.142;8.724;2023-04-07T06:02:15;7.70;99.90
19892;DHT22;10108;50.142;8.724;2023-04-07T06:04:44;7.70;99.90
19892;DHT22;10108;50.142;8.724;2023-04-07T06:07:14;7.70;99.90
19892;DHT22;10108;50.142;8.724;2023-04-07T06:09:42;7.70;99.90
19892;DHT22;10108;50.142;8.724;2023-04-07T06:12:08;7.70;99.90
19892;DHT22;10108;50.142;8.724;2023-04-07T06:14:37;7.70;99.90
19892;DHT22;10108;50.142;8.724;2023-04-07T06:17:04;7.70;99.90
19892;DHT22;10108;50.142;8.724;2023-04-07T06:19:30;7.80;99.90
19892;DHT22;10108;50.142;8.724;2023-04-07T06:21:57;7.70;99.90
19892;DHT22;10108;50.142;8.724;2023-04-07T06:24:23;7.80;99.90
19892;DHT22;10108;50.142;8.724;2023-04-07T06:26:51;7.80;99.90
19892;DHT22;10108;50.142;8.724;2023-04-07T06:29:20;7.80;99.90
19892;DHT22;10108;50.142;8.724;2023-04-07T06:31:47;7.80;99.90
19892;DHT22;10108;50.142;8.724;2023-04-07T06:34:13;7.80;99.90
19892;DHT22;10108;50.142;8.724;2023-04-07T06:36:39;7.80;99.90
19892;DHT22;10108;50.142;8.724;2023-04-07T06:39:05;7.80;99.90
19892;DHT22;10108;50.142;8.724;2023-04-07T06:41:31;7.80;99.90
19892;DHT22;10108;50.142;8.724;2023-04-07T06:43:57;7.80;99.90
19892;DHT22;10108;50.142;8.724;2023-04-07T06:46:24;7.80;99.90
19892;DHT22;10108;50.142;8.724;2023-04-07T06:48:51;7.80;99.90
19892;DHT22;10108;50.142;8.724;2023-04-07T06:51:18;7.80;99.90
19892;DHT22;10108;50.142;8.724;2023-04-07T06:53:44;7.90;99.90
19892;DHT22;10108;50.142;8.724;2023-04-07T06:56:12;7.90;99.90
19892;DHT22;10108;50.142;8.724;2023-04-07T06:58:38;7.90;99.90
19892;DHT22;10108;50.142;8.724;2023-04-07T07:01:04;7.90;99.90
19892;DHT22;10108;50.142;8.724;2023-04-07T07:03:31;8.00;99.90
19892;DHT22;10108;50.142;8.724;2023-04-07T07:05:58;7.90;99.90
19892;DHT22;10108;50.142;8.724;2023-04-07T07:08:25;7.90;99.90
19892;DHT22;10108;50.142;8.724;2023-04-07T07:10:52;7.90;99.90
19892;DHT22;10108;50.142;8.724;2023-04-07T07:13:22;7.90;99.90
19892;DHT22;10108;50.142;8.724;2023-04-07T07:15:49;7.90;99.90
19892;DHT22;10108;50.142;8.724;2023-04-07T07:18:16;7.90;99.90
19892;DHT22;10108;50.142;8.724;2023-04-07T07:20:42;8.00;99.90
19892;DHT22;10108;50.142;8.724;2023-04-07T07:23:09;8.00;99.90
19892;DHT22;10108;50.142;8.724;2023-04-07T07:25:35;8.00;99.90
19892;DHT22;10108;50.142;8.724;2023-04-07T07:28:01;8.00;99.90
19892;DHT22;10108;50.142;8.724;2023-04-07T07:30:27;8.00;99.90
19892;DHT22;10108;50.142;8.724;2023-04-07T07:32:54;8.00;99.90
19892;DHT22;10108;50.142;8.724;2023-04-07T07:35:20;8.00;99.90
19892;DHT22;10108;50.142;8.724;2023-04-07T07:37:47;8.00;99.90
19892;DHT22;10108;50.142;8.724;2023-04-07T07:40:13;8.00;99.90
19892;DHT22;10108;50.142;8.724;2023-04-07T07:42:40;8.00;99.90
19892;DHT22;10108;50.142;8.724;2023-04-07T07:45:06;8.00;99.90
19892;DHT22;10108;50.142;8.724;2023-04-07T07:47:33;8.00;99.90
19892;DHT22;10108;50.142;8.724;2023-04-07T07:50:03;8.10;99.90
19892;DHT22;10108;50.142;8.724;2023-04-07T07:52:29;8.10;99.90
19892;DHT22;10108;50.142;8.724;2023-04-07T07:54:56;8.10;99.90
19892;DHT22;10108;50.142;8.724;2023-04-07T07:57:22;8.10;99.90
19892;DHT22;10108;50.142;8.724;2023-04-07T07:59:48;8.20;99.90
19892;DHT22;10108;50.142;8.724;2023-04-07T08:02:14;8.20;99.90
19892;DHT22;10108;50.142;8.724;2023-04-07T08:04:40;8.20;99.90
19892;DHT22;10108;50.142;8.724;2023-04-07T08:07:07;8.20;99.90
19892;DHT22;10108;50.142;8.724;2023-04-07T08:09:33;8.20;99.90
19892;DHT22;10108;50.142;8.724;2023-04-07T08:11:59;8.20;99.90
19892;DHT22;10108;50.142;8.724;2023-04-07T08:14:26;8.20;99.90
19892;DHT22;10108;50.142;8.724;2023-04-07T08:16:52;8.20;99.90
19892;DHT22;10108;50.142;8.724;2023-04-07T08:19:18;8.30;99.90
19892;DHT22;10108;50.142;8.724;2023-04-07T08:21:44;8.30;99.90
19892;DHT22;10108;50.142;8.724;2023-04-07T08:24:10;8.20;99.90
19892;DHT22;10108;50.142;8.724;2023-04-07T08:26:36;8.20;99.90
19892;DHT22;10108;50.142;8.724;2023-04-07T08:29:03;8.30;99.90
19892;DHT22;10108;50.142;8.724;2023-04-07T08:31:29;8.30;99.90
19892;DHT22;10108;50.142;8.724;2023-04-07T08:33:55;8.30;99.90
19892;DHT22;10108;50.142;8.724;2023-04-07T08:36:24;8.30;99.90
19892;DHT22;10108;50.142;8.724;2023-04-07T08:38:51;8.30;99.90
19892;DHT22;10108;50.142;8.724;2023-04-07T08:41:28;8.30;99.90
19892;DHT22;10108;50.142;8.724;2023-04-07T08:43:56;8.40;99.90
19892;DHT22;10108;50.142;8.724;2023-04-07T08:46:24;8.40;99.90
19892;DHT22;10108;50.142;8.724;2023-04-07T08:48:51;8.40;99.90
19892;DHT22;10108;50.142;8.724;2023-04-07T08:51:30;8.40;99.90
19892;DHT22;10108;50.142;8.724;2023-04-07T08:54:15;8.40;99.90
19892;DHT22;10108;50.142;8.724;2023-04-07T08:56:44;8.40;99.90
19892;DHT22;10108;50.142;8.724;2023-04-07T08:59:15;8.50;99.90
19892;DHT22;10108;50.142;8.724;2023-04-07T09:01:44;8.50;99.90
19892;DHT22;10108;50.142;8.724;2023-04-07T09:04:11;8.50;99.90
19892;DHT22;10108;50.142;8.724;2023-04-07T09:06:38;8.50;99.90
19892;DHT22;10108;50.142;8.724;2023-04-07T09:09:04;8.50;99.90
19892;DHT22;10108;50.142;8.724;2023-04-07T09:11:38;8.50;99.90
19892;DHT22;10108;50.142;8.724;2023-04-07T09:14:05;8.50;99.90
19892;DHT22;10108;50.142;8.724;2023-04-07T09:16:31;8.60;99.90
19892;DHT22;10108;50.142;8.724;2023-04-07T09:18:57;8.60;99.90
19892;DHT22;10108;50.142;8.724;2023-04-07T09:21:24;8.60;99.90
19892;DHT22;10108;50.142;8.724;2023-04-07T09:23:50;8.70;99.90
19892;DHT22;10108;50.142;8.724;2023-04-07T09:26:21;8.70;99.90
19892;DHT22;10108;50.142;8.724;2023-04-07T09:31:17;8.70;99.90
19892;DHT22;10108;50.142;8.724;2023-04-07T09:33:44;8.80;99.90
19892;DHT22;10108;50.142;8.724;2023-04-07T09:36:11;8.80;99.90
19892;DHT22;10108;50.142;8.724;2023-04-07T09:38:38;8.80;99.90
19892;DHT22;10108;50.142;8.724;2023-04-07T09:41:12;8.80;99.90
19892;DHT22;10108;50.142;8.724;2023-04-07T09:43:40;8.80;99.90
19892;DHT22;10108;50.142;8.724;2023-04-07T09:48:33;8.80;99.90
19892;DHT22;10108;50.142;8.724;2023-04-07T09:51:16;8.90;99.90
19892;DHT22;10108;50.142;8.724;2023-04-07T09:56:10;8.90;99.90
19892;DHT22;10108;50.142;8.724;2023-04-07T09:58:37;8.90;99.90
19892;DHT22;10108;50.142;8.724;2023-04-07T10:01:06;8.90;99.90
19892;DHT22;10108;50.142;8.724;2023-04-07T10:03:37;8.90;99.90
19892;DHT22;10108;50.142;8.724;2023-04-07T10:06:05;8.90;99.90
19892;DHT22;10108;50.142;8.724;2023-04-07T10:08:33;8.90;99.90
19892;DHT22;10108;50.142;8.724;2023-04-07T10:11:00;8.90;99.90
19892;DHT22;10108;50.142;8.724;2023-04-07T10:13:32;8.90;99.90
19892;DHT22;10108;50.142;8.724;2023-04-07T10:15:59;8.90;99.90
19892;DHT22;10108;50.142;8.724;2023-04-07T10:18:29;8.90;99.90
19892;DHT22;10108;50.142;8.724;2023-04-07T10:21:01;8.90;99.90
19892;DHT22;10108;50.142;8.724;2023-04-07T10:23:36;8.90;99.90
19892;DHT22;10108;50.142;8.724;2023-04-07T10:26:05;8.90;99.90
19892;DHT22;10108;50.142;8.724;2023-04-07T10:28:36;8.90;99.90
19892;DHT22;10108;50.142;8.724;2023-04-07T10:31:03;8.90;99.90
19892;DHT22;10108;50.142;8.724;2023-04-07T10:33:45;8.90;99.90
19892;DHT22;10108;50.142;8.724;2023-04-07T10:36:12;8.90;99.90
19892;DHT22;10108;50.142;8.724;2023-04-07T10:38:38;8.90;99.90
19892;DHT22;10108;50.142;8.724;2023-04-07T10:43:59;8.90;99.90
19892;DHT22;10108;50.142;8.724;2023-04-07T10:49:14;8.90;99.90
19892;DHT22;10108;50.142;8.724;2023-04-07T10:51:41;8.90;99.90
19892;DHT22;10108;50.142;8.724;2023-04-07T10:54:21;8.90;99.90
19892;DHT22;10108;50.142;8.724;2023-04-07T10:57:08;9.00;99.90
19892;DHT22;10108;50.142;8.724;2023-04-07T10:59:39;9.00;99.90
19892;DHT22;10108;50.142;8.724;2023-04-07T11:04:45;9.00;99.90
19892;DHT22;10108;50.142;8.724;2023-04-07T11:07:13;9.10;99.90
19892;DHT22;10108;50.142;8.724;2023-04-07T11:09:39;9.10;99.90
19892;DHT22;10108;50.142;8.724;2023-04-07T11:12:06;9.00;99.90
19892;DHT22;10108;50.142;8.724;2023-04-07T11:14:33;9.10;99.90
19892;DHT22;10108;50.142;8.724;2023-04-07T11:17:02;9.10;99.90
19892;DHT22;10108;50.142;8.724;2023-04-07T11:19:29;9.10;99.90
19892;DHT22;10108;50.142;8.724;2023-04-07T11:22:15;9.10;99.90
19892;DHT22;10108;50.142;8.724;2023-04-07T11:24:41;9.20;99.90
19892;DHT22;10108;50.142;8.724;2023-04-07T11:27:14;9.20;99.90
19892;DHT22;10108;50.142;8.724;2023-04-07T11:29:41;9.20;99.90
19892;DHT22;10108;50.142;8.724;2023-04-07T11:32:08;9.20;99.90
19892;DHT22;10108;50.142;8.724;2023-04-07T11:34:35;9.30;99.90
19892;DHT22;10108;50.142;8.724;2023-04-07T11:37:21;9.30;99.90
19892;DHT22;10108;50.142;8.724;2023-04-07T11:40:06;9.30;99.90
19892;DHT22;10108;50.142;8.724;2023-04-07T11:45:01;9.30;99.90
19892;DHT22;10108;50.142;8.724;2023-04-07T11:47:38;9.30;99.90
19892;DHT22;10108;50.142;8.724;2023-04-07T11:50:05;9.30;99.90
19892;DHT22;10108;50.142;8.724;2023-04-07T11:52:46;9.30;99.90
19892;DHT22;10108;50.142;8.724;2023-04-07T11:55:19;9.30;99.90
19892;DHT22;10108;50.142;8.724;2023-04-07T11:57:52;9.30;99.90
19892;DHT22;10108;50.142;8.724;2023-04-07T12:00:19;9.30;99.90
19892;DHT22;10108;50.142;8.724;2023-04-07T12:02:46;9.30;99.90
19892;DHT22;10108;50.142;8.724;2023-04-07T12:05:12;9.30;99.90
19892;DHT22;10108;50.142;8.724;2023-04-07T12:07:38;9.30;99.90
19892;DHT22;10108;50.142;8.724;2023-04-07T12:12:46;9.30;99.90
19892;DHT22;10108;50.142;8.724;2023-04-07T12:15:12;9.20;99.90
19892;DHT22;10108;50.142;8.724;2023-04-07T12:17:44;9.20;99.90
19892;DHT22;10108;50.142;8.724;2023-04-07T12:20:12;9.30;99.90
19892;DHT22;10108;50.142;8.724;2023-04-07T12:22:39;9.30;99.90
19892;DHT22;10108;50.142;8.724;2023-04-07T12:25:06;9.30;99.90
19892;DHT22;10108;50.142;8.724;2023-04-07T12:27:32;9.40;99.90
19892;DHT22;10108;50.142;8.724;2023-04-07T12:29:58;9.40;99.90
19892;DHT22;10108;50.142;8.724;2023-04-07T12:32:25;9.50;99.90
19892;DHT22;10108;50.142;8.724;2023-04-07T12:34:51;9.60;99.90
19892;DHT22;10108;50.142;8.724;2023-04-07T12:37:17;9.60;99.90
19892;DHT22;10108;50.142;8.724;2023-04-07T12:39:43;9.60;99.90
19892;DHT22;10108;50.142;8.724;2023-04-07T12:42:09;9.70;99.90
19892;DHT22;10108;50.142;8.724;2023-04-07T12:44:37;9.70;99.90
19892;DHT22;10108;50.142;8.724;2023-04-07T12:47:03;9.70;99.90
19892;DHT22;10108;50.142;8.724;2023-04-07T12:49:29;9.70;99.90
19892;DHT22;10108;50.142;8.724;2023-04-07T12:51:56;9.70;99.90
19892;DHT22;10108;50.142;8.724;2023-04-07T12:54:22;9.70;99.90
19892;DHT22;10108;50.142;8.724;2023-04-07T12:56:49;9.80;99.90
19892;DHT22;10108;50.142;8.724;2023-04-07T12:59:16;9.80;99.90
19892;DHT22;10108;50.142;8.724;2023-04-07T13:01:42;9.90;99.90
19892;DHT22;10108;50.142;8.724;2023-04-07T13:04:08;10.00;99.90
19892;DHT22;10108;50.142;8.724;2023-04-07T13:06:34;10.00;99.90
19892;DHT22;10108;50.142;8.724;2023-04-07T13:09:01;10.00;99.90
19892;DHT22;10108;50.142;8.724;2023-04-07T13:11:27;10.00;99.90
19892;DHT22;10108;50.142;8.724;2023-04-07T13:13:53;10.00;99.90
19892;DHT22;10108;50.142;8.724;2023-04-07T13:16:19;10.00;99.90
19892;DHT22;10108;50.142;8.724;2023-04-07T13:18:45;10.00;99.90
19892;DHT22;10108;50.142;8.724;2023-04-07T13:21:12;10.10;99.90
19892;DHT22;10108;50.142;8.724;2023-04-07T13:23:38;10.20;99.90
19892;DHT22;10108;50.142;8.724;2023-04-07T13:26:04;10.30;99.90
19892;DHT22;10108;50.142;8.724;2023-04-07T13:28:30;10.30;99.90
19892;DHT22;10108;50.142;8.724;2023-04-07T13:30:56;10.40;99.90
19892;DHT22;10108;50.142;8.724;2023-04-07T13:33:22;10.40;99.90
19892;DHT22;10108;50.142;8.724;2023-04-07T13:35:49;10.40;99.90
19892;DHT22;10108;50.142;8.724;2023-04-07T13:38:15;10.40;99.90
19892;DHT22;10108;50.142;8.724;2023-04-07T13:40:41;10.30;99.90
19892;DHT22;10108;50.142;8.724;2023-04-07T13:43:09;10.30;99.90
19892;DHT22;10108;50.142;8.724;2023-04-07T13:45:37;10.40;99.90
19892;DHT22;10108;50.142;8.724;2023-04-07T13:48:03;10.30;99.90
19892;DHT22;10108;50.142;8.724;2023-04-07T13:50:29;10.30;99.90
19892;DHT22;10108;50.142;8.724;2023-04-07T13:52:56;10.30;99.90
19892;DHT22;10108;50.142;8.724;2023-04-07T13:55:22;10.40;99.90
19892;DHT22;10108;50.142;8.724;2023-04-07T13:57:48;10.40;99.90
19892;DHT22;10108;50.142;8.724;2023-04-07T14:00:15;10.40;99.90
19892;DHT22;10108;50.142;8.724;2023-04-07T14:02:42;10.50;99.90
19892;DHT22;10108;50.142;8.724;2023-04-07T14:05:10;10.50;99.90
19892;DHT22;10108;50.142;8.724;2023-04-07T14:07:36;10.50;99.90
19892;DHT22;10108;50.142;8.724;2023-04-07T14:10:02;10.50;99.90
19892;DHT22;10108;50.142;8.724;2023-04-07T14:12:29;10.40;99.90
19892;DHT22;10108;50.142;8.724;2023-04-07T14:14:55;10.40;99.90
19892;DHT22;10108;50.142;8.724;2023-04-07T14:17:21;10.30;99.90
19892;DHT22;10108;50.142;8.724;2023-04-07T14:19:48;10.30;99.90
19892;DHT22;10108;50.142;8.724;2023-04-07T14:22:14;10.20;99.90
19892;DHT22;10108;50.142;8.724;2023-04-07T14:24:40;10.10;99.90
19892;DHT22;10108;50.142;8.724;2023-04-07T14:27:06;10.00;99.90
19892;DHT22;10108;50.142;8.724;2023-04-07T14:29:32;10.00;99.90
19892;DHT22;10108;50.142;8.724;2023-04-07T14:31:58;9.90;99.90
19892;DHT22;10108;50.142;8.724;2023-04-07T14:34:24;10.00;99.90
19892;DHT22;10108;50.142;8.724;2023-04-07T14:36:57;10.00;99.90
19892;DHT22;10108;50.142;8.724;2023-04-07T14:39:26;10.10;99.90
19892;DHT22;10108;50.142;8.724;2023-04-07T14:41:52;10.20;99.90
19892;DHT22;10108;50.142;8.724;2023-04-07T14:44:19;10.20;99.90
19892;DHT22;10108;50.142;8.724;2023-04-07T14:46:45;10.20;99.90
19892;DHT22;10108;50.142;8.724;2023-04-07T14:49:13;10.20;99.90
19892;DHT22;10108;50.142;8.724;2023-04-07T14:51:39;10.20;99.90
19892;DHT22;10108;50.142;8.724;2023-04-07T14:54:05;10.10;99.90
19892;DHT22;10108;50.142;8.724;2023-04-07T14:56:32;10.10;99.90
19892;DHT22;10108;50.142;8.724;2023-04-07T14:58:59;10.00;99.90
19892;DHT22;10108;50.142;8.724;2023-04-07T15:01:25;10.10;99.90
19892;DHT22;10108;50.142;8.724;2023-04-07T15:03:51;10.10;99.90
19892;DHT22;10108;50.142;8.724;2023-04-07T15:06:18;10.20;99.90
19892;DHT22;10108;50.142;8.724;2023-04-07T15:08:44;10.10;99.90
19892;DHT22;10108;50.142;8.724;2023-04-07T15:11:12;10.10;99.90
19892;DHT22;10108;50.142;8.724;2023-04-07T15:13:38;10.00;99.90
19892;DHT22;10108;50.142;8.724;2023-04-07T15:16:08;10.00;99.90
19892;DHT22;10108;50.142;8.724;2023-04-07T15:18:39;10.00;99.90
19892;DHT22;10108;50.142;8.724;2023-04-07T15:21:07;10.00;99.90
19892;DHT22;10108;50.142;8.724;2023-04-07T15:23:34;10.00;99.90
19892;DHT22;10108;50.142;8.724;2023-04-07T15:26:05;10.10;99.90
19892;DHT22;10108;50.142;8.724;2023-04-07T15:28:32;10.10;99.90
19892;DHT22;10108;50.142;8.724;2023-04-07T15:30:58;10.20;99.90
19892;DHT22;10108;50.142;8.724;2023-04-07T15:33:25;10.20;99.90
19892;DHT22;10108;50.142;8.724;2023-04-07T15:35:52;10.20;99.90
19892;DHT22;10108;50.142;8.724;2023-04-07T15:38:18;10.20;99.90
19892;DHT22;10108;50.142;8.724;2023-04-07T15:40:44;10.10;99.90
19892;DHT22;10108;50.142;8.724;2023-04-07T15:43:11;10.10;99.90
19892;DHT22;10108;50.142;8.724;2023-04-07T15:45:41;10.10;99.90
19892;DHT22;10108;50.142;8.724;2023-04-07T15:48:09;10.00;99.90
19892;DHT22;10108;50.142;8.724;2023-04-07T15:50:35;10.00;99.90
19892;DHT22;10108;50.142;8.724;2023-04-07T15:53:02;10.00;99.90
19892;DHT22;10108;50.142;8.724;2023-04-07T15:55:35;10.10;99.90
19892;DHT22;10108;50.142;8.724;2023-04-07T15:58:02;10.10;99.90
19892;DHT22;10108;50.142;8.724;2023-04-07T16:00:32;10.10;99.90
19892;DHT22;10108;50.142;8.724;2023-04-07T16:03:01;10.20;99.90
19892;DHT22;10108;50.142;8.724;2023-04-07T16:05:27;10.20;99.90
19892;DHT22;10108;50.142;8.724;2023-04-07T16:07:54;10.20;99.90
19892;DHT22;10108;50.142;8.724;2023-04-07T16:10:20;10.20;99.90
19892;DHT22;10108;50.142;8.724;2023-04-07T16:12:47;10.20;99.90
19892;DHT22;10108;50.142;8.724;2023-04-07T16:15:14;10.10;99.90
19892;DHT22;10108;50.142;8.724;2023-04-07T16:17:45;10.10;99.90